Time;durP1;ratioP1;P1;durP2;ratioP2;P2;SDS_P1;SDS_P2;PMS_P1;PMS_P2;Temp;Humidity;BMP_temperature;BMP_pressure;BME280_temperature;BME280_humidity;BME280_pressure;Samples;Min_cycle;Max_cycle;Signal;HPM_P1;HPM_P2
2022/11/08 00:02:25;;;;;;;15.95;14.57;;;;;;;16.46;93.06;100024.78;5047834;28;20059;-67
2022/11/08 00:04:52;;;;;;;22.58;15.68;;;;;;;16.51;93.67;100018.97;5050123;28;20487;-68
2022/11/08 00:15:37;;;;;;;15.88;13.85;;;;;;;16.53;93.42;100016.66;5050129;28;20056;-66
2022/11/08 00:18:05;;;;;;;19.80;18.15;;;;;;;16.60;93.27;100019.81;5042264;28;20088;-67
2022/11/08 00:20:33;;;;;;;15.40;13.88;;;;;;;16.62;93.09;100017.50;5042638;28;20052;-66
2022/11/08 00:23:00;;;;;;;18.10;14.30;;;;;;;16.63;93.03;100016.31;5048893;28;20048;-66
2022/11/08 00:25:27;;;;;;;15.40;13.93;;;;;;;16.62;92.65;100025.13;5042721;28;20045;-67
2022/11/08 00:27:54;;;;;;;20.05;15.80;;;;;;;16.61;92.44;100026.25;5037795;28;20404;-67
2022/11/08 00:30:20;;;;;;;17.67;13.85;;;;;;;16.56;92.31;100030.91;5037031;28;20041;-66
2022/11/08 00:32:47;;;;;;;16.30;14.80;;;;;;;16.47;92.43;100023.63;5049017;28;20064;-68
2022/11/08 00:35:14;;;;;;;14.98;13.88;;;;;;;16.41;91.98;100024.94;5034329;28;20487;-66
2022/11/08 00:37:41;;;;;;;20.27;14.90;;;;;;;16.33;92.24;100032.25;5034891;28;20045;-67
2022/11/08 00:40:08;;;;;;;17.40;13.40;;;;;;;16.34;92.15;100036.72;5050215;28;20048;-67
2022/11/08 00:42:35;;;;;;;15.52;14.02;;;;;;;16.19;91.77;100014.69;5036586;28;20054;-67
2022/11/08 00:45:03;;;;;;;20.08;14.35;;;;;;;16.31;91.76;100045.88;5058297;28;20502;-68
2022/11/08 00:47:29;;;;;;;19.00;14.60;;;;;;;16.29;92.00;100043.38;5041821;28;20112;-68
2022/11/08 00:49:56;;;;;;;20.60;14.75;;;;;;;16.29;91.79;100043.38;5041331;28;20049;-68
2022/11/08 00:52:23;;;;;;;15.75;14.50;;;;;;;16.24;92.00;100035.09;5051610;28;20056;-68
2022/11/08 00:54:50;;;;;;;15.73;14.32;;;;;;;16.27;91.71;100044.84;5040373;28;20053;-69
2022/11/08 00:57:17;;;;;;;16.13;14.43;;;;;;;16.22;92.02;100043.03;5038923;28;20488;-69
2022/11/08 00:59:43;;;;;;;18.35;14.38;;;;;;;16.25;91.53;100045.19;5037910;28;20052;-68
2022/11/08 01:02:10;;;;;;;18.33;13.73;;;;;;;16.20;91.90;100045.34;5039869;28;20057;-68
2022/11/08 01:04:37;;;;;;;19.05;15.07;;;;;;;16.20;91.42;100045.34;5070476;28;20053;-69
2022/11/08 01:07:04;;;;;;;18.40;14.40;;;;;;;16.18;91.78;100039.22;5039132;28;20044;-69
2022/11/08 01:09:30;;;;;;;21.00;14.50;;;;;;;16.23;91.55;100052.31;5041221;28;20045;-69
2022/11/08 01:11:57;;;;;;;19.40;14.32;;;;;;;16.21;91.66;100044.19;5044804;28;20051;-69
2022/11/08 01:14:24;;;;;;;21.48;15.15;;;;;;;16.28;91.77;100054.97;5035916;28;20045;-69
2022/11/08 01:16:51;;;;;;;15.60;14.18;;;;;;;16.27;91.46;100045.69;5042819;28;20045;-69
2022/11/08 01:19:18;;;;;;;27.05;14.32;;;;;;;16.31;91.38;100045.88;5038070;28;20107;-69
2022/11/08 01:21:45;;;;;;;16.63;14.25;;;;;;;16.34;91.18;100048.84;5053985;28;20052;-70
2022/11/08 01:24:12;;;;;;;14.77;13.50;;;;;;;16.35;91.12;100041.22;5058329;28;20083;-68
2022/11/08 01:26:39;;;;;;;23.35;14.43;;;;;;;16.42;90.84;100043.53;5039375;28;20119;-70
2022/11/08 01:29:06;;;;;;;21.00;14.57;;;;;;;16.32;90.80;100028.63;5037295;28;20049;-69
2022/11/08 01:31:33;;;;;;;22.95;13.68;;;;;;;16.49;90.99;100046.69;5043871;28;20050;-68
2022/11/08 01:34:00;;;;;;;15.32;13.60;;;;;;;16.53;90.53;100044.84;5033526;28;20116;-68
2022/11/08 01:36:28;;;;;;;15.65;14.20;;;;;;;16.50;90.71;100035.06;5037333;28;20045;-68
2022/11/08 01:38:56;;;;;;;16.85;13.93;;;;;;;16.50;90.17;100020.16;5033268;28;20419;-68
2022/11/08 01:41:25;;;;;;;14.88;13.77;;;;;;;16.51;90.28;100027.44;5033226;28;20050;-69
2022/11/08 01:43:56;;;;;;;14.52;13.10;;;;;;;16.46;90.13;100010.72;5041074;28;20053;-67
2022/11/08 01:46:32;;;;;;;23.08;13.38;;;;;;;16.49;90.13;100007.22;5039075;28;20055;-65
2022/11/08 01:49:26;;;;;;;15.40;13.60;;;;;;;16.43;90.15;100009.38;5033927;28;20042;-64
2022/11/08 01:52:09;;;;;;;19.10;13.68;;;;;;;16.48;90.33;100011.22;5035557;28;20049;-66
2022/11/08 01:54:57;;;;;;;22.08;13.15;;;;;;;16.40;90.27;100000.75;5038173;28;20144;-66
2022/11/08 01:57:46;;;;;;;14.38;12.95;;;;;;;16.41;90.11;100011.72;5038425;28;20041;-66
2022/11/08 02:00:15;;;;;;;19.58;15.57;;;;;;;16.47;89.75;100015.19;5047204;28;20053;-66
2022/11/08 02:02:44;;;;;;;14.13;12.70;;;;;;;16.43;89.69;99994.47;5041368;28;20415;-66
2022/11/08 02:05:24;;;;;;;16.43;14.10;;;;;;;16.40;89.81;99986.66;5046712;28;20522;-69
2022/11/08 02:07:54;;;;;;;;;;;;;;;16.22;90.55;100009.22;5044314;28;20041;-69
2022/11/08 02:10:28;;;;;;;17.73;15.45;;;;;;;16.38;90.42;99992.66;5038153;28;19971;-69
2022/11/08 02:12:55;;;;;;;16.48;14.85;;;;;;;16.44;89.93;99996.09;5042940;28;20044;-69
2022/11/08 02:15:24;;;;;;;26.92;13.40;;;;;;;16.47;89.92;99995.44;5044800;28;20060;-69
2022/11/08 02:17:52;;;;;;;19.98;14.55;;;;;;;16.47;89.95;99999.09;5057168;28;20059;-69
2022/11/08 02:20:19;;;;;;;18.77;14.20;;;;;;;16.48;89.59;100011.22;5056639;28;20381;-67
2022/11/08 02:23:09;;;;;;;24.25;15.35;;;;;;;16.41;89.62;99989.16;5054253;28;20079;-71
2022/11/08 02:25:36;;;;;;;25.27;13.38;;;;;;;16.25;89.53;99991.66;5063784;28;20049;-69
2022/11/08 02:28:03;;;;;;;20.95;14.75;;;;;;;16.44;89.66;99996.09;5042184;28;20056;-69
2022/11/08 02:30:34;;;;;;;23.60;13.27;;;;;;;16.42;89.01;99987.19;5034537;28;20056;-68
2022/11/08 02:33:21;;;;;;;15.38;13.93;;;;;;;16.40;88.93;99992.31;5038151;28;20049;-67
2022/11/08 02:35:53;;;;;;;19.50;14.38;;;;;;;16.29;89.42;99963.66;5037991;28;20048;-67
2022/11/08 02:38:21;;;;;;;25.25;14.02;;;;;;;16.45;88.79;100001.44;5037941;28;20492;-68
2022/11/08 02:40:49;;;;;;;14.38;12.18;;;;;;;16.44;88.98;99984.84;5047313;28;20049;-68
2022/11/08 02:43:16;;;;;;;14.70;12.55;;;;;;;16.47;88.74;99987.00;5044204;28;20399;-68
2022/11/08 02:45:44;;;;;;;22.73;13.50;;;;;;;16.49;88.52;99981.84;5046245;28;20059;-69
2022/11/08 02:48:11;;;;;;;17.50;14.45;;;;;;;16.51;88.50;99987.97;5047745;28;20047;-69
2022/11/08 02:50:39;;;;;;;14.10;12.82;;;;;;;16.45;88.59;99978.06;5047431;28;20048;-69
2022/11/08 02:53:07;;;;;;;16.80;12.88;;;;;;;16.49;88.43;99973.41;5034843;28;20065;-70
2022/11/08 02:55:34;;;;;;;18.70;13.68;;;;;;;16.48;88.65;99974.56;5032263;28;20407;-70
2022/11/08 02:58:01;;;;;;;18.20;13.20;;;;;;;16.45;88.31;99973.25;5034428;28;20052;-71
2022/11/08 03:00:28;;;;;;;16.77;13.30;;;;;;;16.48;88.41;99966.13;5038594;28;20045;-71
2022/11/08 03:02:56;;;;;;;14.57;13.07;;;;;;;16.47;88.37;99956.81;5045821;28;20662;-70
2022/11/08 03:05:25;;;;;;;14.88;13.07;;;;;;;16.53;87.94;99969.56;5043558;28;20052;-70
2022/11/08 03:07:53;;;;;;;21.25;13.73;;;;;;;16.41;88.12;99954.50;5034730;28;20037;-71
2022/11/08 03:10:21;;;;;;;14.60;13.18;;;;;;;16.57;88.37;99978.19;5033473;28;20053;-69
2022/11/08 03:13:00;;;;;;;17.23;13.50;;;;;;;16.56;88.30;99973.72;5034775;28;20055;-69
2022/11/08 03:15:28;;;;;;;19.33;11.60;;;;;;;16.62;88.26;99977.19;5039951;28;20049;-71
2022/11/08 03:17:55;;;;;;;20.73;13.32;;;;;;;16.64;88.32;99970.03;5039038;28;20057;-71
2022/11/08 03:20:23;;;;;;;23.23;13.60;;;;;;;16.62;88.26;99966.75;5039342;28;20049;-69
2022/11/08 03:23:03;;;;;;;19.50;13.20;;;;;;;16.68;88.27;99982.28;5037077;28;20056;-70
2022/11/08 03:25:30;;;;;;;21.30;13.73;;;;;;;16.67;88.26;99975.00;5048087;28;20049;-70
2022/11/08 03:28:01;;;;;;;18.58;13.48;;;;;;;16.56;88.22;99968.91;5034829;28;20053;-68
2022/11/08 03:30:28;;;;;;;19.60;13.55;;;;;;;16.68;87.87;99976.66;5038815;28;20144;-69
2022/11/08 03:32:55;;;;;;;17.02;14.38;;;;;;;16.68;88.10;99973.00;5034025;28;20056;-69
2022/11/08 03:35:22;;;;;;;21.70;14.43;;;;;;;16.70;87.82;99971.53;5035207;28;20071;-69
2022/11/08 03:37:54;;;;;;;20.17;14.05;;;;;;;16.72;88.01;99966.38;5037924;28;20050;-70
2022/11/08 03:40:21;;;;;;;13.85;12.68;;;;;;;16.67;87.69;99965.72;5052250;28;20419;-67
2022/11/08 03:42:49;;;;;;;17.50;13.90;;;;;;;16.69;87.38;99971.88;5038437;28;20052;-68
2022/11/08 03:45:15;;;;;;;24.40;14.55;;;;;;;16.70;87.56;99970.69;5045878;28;20060;-68
2022/11/08 03:47:45;;;;;;;14.20;12.55;;;;;;;16.69;87.74;99967.06;5039911;28;20408;-68
2022/11/08 03:50:14;;;;;;;13.50;12.65;;;;;;;16.61;87.43;99962.25;5036019;28;20051;-68
2022/11/08 03:52:41;;;;;;;24.10;14.63;;;;;;;16.65;87.57;99970.88;5036398;28;20053;-70
2022/11/08 03:55:11;;;;;;;17.98;13.63;;;;;;;16.62;87.23;99958.28;5037344;28;20431;-70
2022/11/08 03:57:39;;;;;;;22.95;13.35;;;;;;;16.53;87.59;99940.56;5040349;28;20051;-72
2022/11/08 04:00:08;;;;;;;21.73;13.88;;;;;;;16.58;87.01;99954.47;5037163;28;20491;-69
2022/11/08 04:02:35;;;;;;;27.33;15.00;;;;;;;16.44;87.12;99943.38;5036272;28;20045;-69
2022/11/08 04:05:04;;;;;;;15.15;13.27;;;;;;;16.49;87.62;99953.69;5033258;28;20077;-69
2022/11/08 04:07:31;;;;;;;15.20;12.77;;;;;;;16.34;87.82;99950.22;5042120;28;20049;-68
2022/11/08 04:09:57;;;;;;;17.10;12.30;;;;;;;16.33;87.91;99945.72;5036535;28;20515;-68
2022/11/08 04:15:13;;;;;;;16.02;13.68;;;;;;;16.32;88.29;99961.00;5034498;28;20056;-74
2022/11/08 04:23:17;;;;;;;13.02;11.75;;;;;;;16.28;88.28;99951.56;5048337;28;20056;-67
2022/11/08 04:25:44;;;;;;;14.85;13.18;;;;;;;16.32;88.31;99946.91;5035953;28;20056;-67
2022/11/08 04:28:11;;;;;;;13.98;12.48;;;;;;;16.34;87.75;99964.31;5037669;28;20041;-67
2022/11/08 04:30:37;;;;;;;14.32;12.50;;;;;;;16.39;87.92;99962.47;5038571;28;20049;-67
2022/11/08 04:33:05;;;;;;;12.05;10.90;;;;;;;16.25;87.97;99929.69;5045146;28;20051;-67
2022/11/08 04:35:32;;;;;;;20.30;12.35;;;;;;;16.34;87.98;99950.22;5046663;28;20063;-67
2022/11/08 04:38:01;;;;;;;15.40;12.30;;;;;;;16.35;87.49;99946.25;5048786;28;20482;-67
2022/11/08 04:40:30;;;;;;;12.32;11.35;;;;;;;16.33;87.52;99945.72;5044790;28;20053;-65
2022/11/08 04:42:57;;;;;;;20.80;12.45;;;;;;;16.26;87.82;99948.22;5044518;28;20045;-66
2022/11/08 04:45:24;;;;;;;16.33;14.18;;;;;;;16.40;87.77;99952.84;5035078;28;20060;-66
2022/11/08 04:47:50;;;;;;;14.90;13.40;;;;;;;16.40;87.69;99953.69;5043516;28;20046;-66
2022/11/08 04:50:17;;;;;;;17.48;13.98;;;;;;;16.37;87.40;99937.44;5047478;28;20049;-66
2022/11/08 04:52:51;;;;;;;12.27;11.45;;;;;;;16.40;87.23;99930.31;5040233;28;20076;-66
2022/11/08 04:55:18;;;;;;;12.52;11.63;;;;;;;16.37;87.59;99919.72;5047316;28;20052;-67
2022/11/08 04:57:45;;;;;;;14.88;11.65;;;;;;;16.34;87.02;99899.50;5041615;28;20048;-67
2022/11/08 05:00:13;;;;;;;13.23;12.07;;;;;;;16.40;87.26;99851.41;5049254;28;20053;-66
2022/11/08 05:02:40;;;;;;;16.50;11.48;;;;;;;16.29;86.98;99863.03;5036692;28;20371;-67
2022/11/08 05:05:08;;;;;;;12.38;10.98;;;;;;;16.34;86.49;99850.75;5039785;28;20511;-66
2022/11/08 05:07:35;;;;;;;13.82;12.25;;;;;;;16.23;86.46;99833.38;5043351;28;20064;-66
2022/11/08 05:10:02;;;;;;;13.00;11.18;;;;;;;16.29;86.22;99854.59;5041493;28;20052;-68
2022/11/08 05:12:29;;;;;;;17.50;12.18;;;;;;;16.41;85.91;99867.16;5036168;28;20045;-69
2022/11/08 05:14:55;;;;;;;19.15;11.80;;;;;;;16.38;86.20;99862.22;5041630;28;20049;-69
2022/11/08 05:17:22;;;;;;;13.45;11.20;;;;;;;16.34;86.12;99876.97;5040511;28;20487;-69
2022/11/08 05:25:20;;;;;;;11.13;10.13;;;;;;;16.28;85.74;99850.13;5053905;28;20056;-69
2022/11/08 05:27:47;;;;;;;12.70;11.55;;;;;;;16.28;85.66;99852.94;5055667;28;20045;-68
2022/11/08 05:30:13;;;;;;;13.88;11.10;;;;;;;16.34;86.04;99887.38;5050985;28;20518;-69
2022/11/08 05:32:40;;;;;;;12.98;10.32;;;;;;;16.31;85.62;99886.09;5054951;28;20060;-69
2022/11/08 05:35:07;;;;;;;10.57;9.57;;;;;;;16.34;85.61;99882.59;5053877;28;20076;-69
2022/11/08 05:37:34;;;;;;;12.75;10.73;;;;;;;16.30;85.68;99886.41;5034896;28;20049;-66
2022/11/08 05:40:01;;;;;;;13.00;10.60;;;;;;;16.41;85.90;99912.22;5038250;28;20049;-67
2022/11/08 05:42:28;;;;;;;12.27;9.30;;;;;;;16.44;85.76;99914.38;5037705;28;20447;-66
2022/11/08 05:44:55;;;;;;;13.25;9.63;;;;;;;16.47;85.97;99908.91;5034649;28;20496;-66
2022/11/08 05:47:21;;;;;;;17.63;10.32;;;;;;;16.46;85.61;99895.97;5048652;28;20049;-66
2022/11/08 05:49:48;;;;;;;16.70;10.40;;;;;;;16.49;85.64;99906.59;5051845;28;20063;-66
2022/11/08 05:52:15;;;;;;;12.52;10.35;;;;;;;16.50;85.15;99921.50;5035173;28;20045;-66
2022/11/08 05:54:42;;;;;;;11.00;9.90;;;;;;;16.50;85.58;99919.50;5051137;28;20059;-66
2022/11/08 05:57:08;;;;;;;11.43;10.13;;;;;;;16.55;85.25;99916.53;5043911;28;20063;-66
2022/11/08 05:59:35;;;;;;;13.40;10.90;;;;;;;16.55;85.61;99910.06;5041313;28;20516;-66
2022/11/08 06:02:02;;;;;;;11.75;10.05;;;;;;;16.51;85.52;99920.31;5043011;28;20511;-66
2022/11/08 06:04:29;;;;;;;10.55;9.45;;;;;;;16.54;85.38;99922.47;5032203;28;20084;-67
2022/11/08 06:06:56;;;;;;;9.85;8.38;;;;;;;16.50;85.64;99918.69;5042613;28;20060;-67
2022/11/08 06:09:22;;;;;;;11.27;8.57;;;;;;;16.56;85.71;99918.16;5050011;28;20411;-67
2022/11/08 06:11:49;;;;;;;11.10;8.75;;;;;;;16.48;85.67;99895.66;5043239;28;20064;-67
2022/11/08 06:14:16;;;;;;;9.23;8.50;;;;;;;16.51;85.89;99859.19;5031640;28;20050;-67
2022/11/08 06:16:43;;;;;;;14.77;8.13;;;;;;;16.45;85.85;99823.06;5045579;28;20525;-67
2022/11/08 06:19:10;;;;;;;8.90;7.55;;;;;;;16.33;85.97;99823.75;5039024;28;20045;-67
2022/11/08 06:21:36;;;;;;;16.73;9.27;;;;;;;16.19;86.63;99857.75;5036672;28;20048;-67
2022/11/08 06:24:04;;;;;;;11.23;8.73;;;;;;;15.93;87.32;99871.06;5044042;28;20088;-66
2022/11/08 06:26:31;;;;;;;9.45;8.38;;;;;;;15.98;87.74;99871.72;5036591;28;20068;-67
2022/11/08 06:28:57;;;;;;;13.85;9.05;;;;;;;15.94;88.09;99864.28;5035312;28;20060;-67
2022/11/08 06:31:24;;;;;;;16.30;9.43;;;;;;;15.93;88.19;99852.19;5042077;28;20543;-66
2022/11/08 06:33:51;;;;;;;10.65;10.02;;;;;;;15.88;88.48;99822.22;5035078;28;20060;-65
2022/11/08 06:36:19;;;;;;;13.57;11.93;;;;;;;15.67;88.54;99731.19;5049592;28;20048;-65
2022/11/08 06:38:46;;;;;;;13.02;12.05;;;;;;;15.72;89.31;99786.47;5035464;28;20053;-65
2022/11/08 06:41:18;;;;;;;13.93;12.48;;;;;;;15.66;90.04;99797.09;5034749;28;20045;-65
2022/11/08 06:43:45;;;;;;;13.35;12.30;;;;;;;15.64;90.32;99844.41;5032558;28;20107;-65
2022/11/08 06:46:12;;;;;;;14.38;12.95;;;;;;;15.61;90.30;99825.34;5033394;28;20049;-65
2022/11/08 06:48:39;;;;;;;14.18;12.77;;;;;;;15.67;90.56;99846.59;5035877;28;20046;-64
2022/11/08 06:51:06;;;;;;;14.68;13.60;;;;;;;15.71;90.36;99846.75;5035066;28;20412;-63
2022/11/08 06:53:33;;;;;;;19.63;13.90;;;;;;;15.72;90.46;99831.50;5035603;28;20044;-63
2022/11/08 06:56:00;;;;;;;14.50;13.02;;;;;;;15.81;90.30;99838.78;5056561;28;20140;-63
2022/11/08 06:58:28;;;;;;;18.05;16.50;;;;;;;15.80;90.18;99825.88;5043924;28;20046;-63
2022/11/08 07:00:55;;;;;;;18.13;16.60;;;;;;;15.79;90.02;99814.94;5043526;28;20819;-63
2022/11/08 07:03:21;;;;;;;14.50;13.40;;;;;;;15.92;89.84;99835.63;5040076;28;20092;-62
2022/11/08 07:05:48;;;;;;;12.75;11.43;;;;;;;16.00;89.80;99855.34;5035398;28;20053;-62
2022/11/08 07:08:15;;;;;;;12.55;11.82;;;;;;;16.03;89.83;99860.31;5039799;28;20037;-71
2022/11/08 07:10:48;;;;;;;13.73;11.88;;;;;;;16.06;88.97;99864.41;5041008;28;20040;-64
2022/11/08 07:13:15;;;;;;;11.23;10.50;;;;;;;16.05;88.90;99874.84;5045766;28;20099;-63
2022/11/08 07:15:44;;;;;;;18.92;11.48;;;;;;;16.10;89.02;99871.03;5037468;28;20044;-63
2022/11/08 07:18:12;;;;;;;13.50;11.98;;;;;;;16.09;88.62;99866.56;5041712;28;20057;-64
2022/11/08 07:20:41;;;;;;;13.60;11.57;;;;;;;16.06;88.48;99856.78;5037084;28;20057;-64
2022/11/08 07:23:09;;;;;;;15.00;12.18;;;;;;;16.03;88.81;99865.09;5039296;28;20335;-64
2022/11/08 07:25:37;;;;;;;16.88;15.77;;;;;;;15.98;88.84;99868.09;5030387;28;20060;-64
2022/11/08 07:28:06;;;;;;;17.33;15.57;;;;;;;15.71;89.66;99846.75;5032657;28;20044;-64
2022/11/08 07:30:34;;;;;;;17.63;13.20;;;;;;;15.73;90.11;99872.59;5030605;28;20053;-64
2022/11/08 07:33:01;;;;;;;14.82;13.70;;;;;;;15.71;90.60;99878.53;5035553;28;21382;-63
2022/11/08 07:35:28;;;;;;;13.98;13.07;;;;;;;15.56;91.54;99871.41;5037968;28;20056;-63
2022/11/08 07:37:55;;;;;;;16.85;15.57;;;;;;;15.51;91.73;99871.53;5034027;28;20064;-64
2022/11/08 07:40:22;;;;;;;16.83;15.30;;;;;;;15.38;92.66;99895.88;5034119;28;20134;-63
2022/11/08 07:42:49;;;;;;;22.17;20.48;;;;;;;15.45;93.07;99936.75;5051103;28;20053;-63
2022/11/08 07:45:36;;;;;;;17.02;15.63;;;;;;;15.38;93.37;99907.13;5035888;28;20106;-65
2022/11/08 07:48:07;;;;;;;16.95;15.75;;;;;;;15.38;93.44;99926.84;5034218;28;20045;-64
2022/11/08 07:50:39;;;;;;;16.05;14.90;;;;;;;15.37;94.13;99911.09;5034147;28;20055;-64
2022/11/08 07:53:06;;;;;;;25.40;23.27;;;;;;;15.35;94.29;99921.00;5030300;28;20061;-63
2022/11/08 07:55:35;;;;;;;17.70;16.52;;;;;;;15.38;93.92;99946.53;5033932;28;20045;-62
2022/11/08 07:58:03;;;;;;;15.60;14.82;;;;;;;15.28;94.41;99958.09;5035692;28;20099;-62
2022/11/08 08:00:30;;;;;;;24.05;22.48;;;;;;;15.33;94.36;99976.78;5033812;28;20044;-65
2022/11/08 08:03:00;;;;;;;20.45;19.45;;;;;;;15.33;94.55;99966.34;5035627;28;20049;-63
2022/11/08 08:05:33;;;;;;;17.75;16.45;;;;;;;15.37;94.61;99969.34;5030113;28;20056;-63
2022/11/08 08:08:01;;;;;;;15.70;14.77;;;;;;;15.43;94.63;100003.78;5034876;28;20508;-63
2022/11/08 08:10:29;;;;;;;16.15;15.15;;;;;;;15.37;94.49;99998.31;5041673;28;20052;-64
2022/11/08 08:12:56;;;;;;;19.38;18.08;;;;;;;15.44;94.50;99997.00;5037333;28;20487;-64
2022/11/08 08:15:24;;;;;;;16.95;15.65;;;;;;;15.41;94.15;99995.66;5037522;28;20419;-64
2022/11/08 08:17:51;;;;;;;21.95;20.52;;;;;;;15.44;94.57;100022.31;5037764;28;20148;-63
2022/11/08 08:20:18;;;;;;;16.75;15.35;;;;;;;15.37;94.31;100034.88;5033456;28;20436;-63
2022/11/08 08:22:47;;;;;;;15.52;14.52;;;;;;;15.31;93.97;100024.09;5040587;28;20041;-63
2022/11/08 08:25:14;;;;;;;19.02;17.05;;;;;;;15.23;94.05;100027.72;5041682;28;20412;-63
2022/11/08 08:27:52;;;;;;;17.42;15.48;;;;;;;15.19;93.78;100037.97;5034897;28;20050;-63
2022/11/08 08:30:19;;;;;;;17.00;15.18;;;;;;;15.12;93.83;100039.25;5044087;28;20055;-63
2022/11/08 08:32:47;;;;;;;16.38;14.75;;;;;;;15.21;93.57;100053.34;5043527;28;20053;-63
2022/11/08 08:35:35;;;;;;;15.30;13.88;;;;;;;15.15;93.71;100065.91;5049598;28;20102;-64
2022/11/08 08:38:03;;;;;;;16.10;14.10;;;;;;;14.97;93.75;100036.00;5038573;28;20388;-63
2022/11/08 08:40:31;;;;;;;14.98;13.82;;;;;;;15.13;93.61;100071.00;5043590;28;20053;-63
2022/11/08 08:42:59;;;;;;;23.73;16.10;;;;;;;15.09;93.92;100067.19;5047308;28;20053;-63
2022/11/08 08:45:26;;;;;;;18.52;14.82;;;;;;;15.12;94.12;100073.00;5040321;28;20409;-64
2022/11/08 08:47:55;;;;;;;26.83;15.57;;;;;;;15.10;93.86;100066.84;5036574;28;20068;-64
2022/11/08 08:50:24;;;;;;;32.90;15.85;;;;;;;15.14;93.90;100064.22;5036826;28;20049;-64
2022/11/08 08:52:51;;;;;;;16.10;14.63;;;;;;;15.14;94.16;100058.59;5042978;28;20049;-64
2022/11/08 08:55:17;;;;;;;17.35;14.15;;;;;;;15.25;94.26;100071.25;5038081;28;20060;-64
2022/11/08 08:57:46;;;;;;;24.02;15.00;;;;;;;15.25;93.95;100042.28;5046105;28;20359;-64
2022/11/08 09:00:14;;;;;;;19.25;17.40;;;;;;;15.34;94.33;100054.41;5037682;28;20136;-64
2022/11/08 09:03:03;;;;;;;20.02;14.88;;;;;;;15.39;94.21;100060.72;5045800;28;20099;-64
2022/11/08 09:05:31;;;;;;;21.63;19.40;;;;;;;15.48;94.55;100048.66;5037336;28;20404;-64
2022/11/08 09:07:58;;;;;;;22.55;20.17;;;;;;;15.60;94.58;100057.31;5047741;28;20618;-64
2022/11/08 09:10:25;;;;;;;16.05;14.40;;;;;;;15.59;94.51;100055.66;5044020;28;20400;-65
2022/11/08 09:12:53;;;;;;;20.77;18.88;;;;;;;15.71;94.14;100066.31;5043186;28;20605;-65
2022/11/08 09:15:20;;;;;;;18.02;14.18;;;;;;;15.74;94.45;100054.41;5046277;28;20052;-65
2022/11/08 09:17:46;;;;;;;16.95;14.27;;;;;;;15.83;94.14;100069.34;5043116;28;20087;-64
2022/11/08 09:20:13;;;;;;;13.40;12.30;;;;;;;15.94;94.16;100070.69;5042042;28;20042;-64
2022/11/08 09:22:40;;;;;;;16.15;14.65;;;;;;;15.98;94.37;100062.41;5038867;28;20053;-63
2022/11/08 09:25:09;;;;;;;16.77;14.82;;;;;;;16.05;94.09;100071.19;5040721;28;20061;-64
2022/11/08 09:27:36;;;;;;;13.55;12.32;;;;;;;16.05;94.84;100049.47;5033732;28;20080;-64
2022/11/08 09:30:03;;;;;;;17.67;12.35;;;;;;;16.26;94.66;100075.00;5045961;28;20048;-64
2022/11/08 09:32:31;;;;;;;13.15;11.95;;;;;;;16.44;94.74;100094.75;5036524;28;20045;-64
2022/11/08 09:35:18;;;;;;;13.40;12.00;;;;;;;16.48;94.41;100093.78;5046360;28;20545;-64
2022/11/08 09:37:44;;;;;;;16.90;11.68;;;;;;;16.59;94.38;100092.28;5044105;28;20056;-64
2022/11/08 09:40:31;;;;;;;13.38;12.27;;;;;;;16.61;94.11;100088.28;5033149;28;20088;-64
2022/11/08 09:43:36;;;;;;;13.73;12.43;;;;;;;16.64;94.54;100102.53;5042432;28;20041;-64
2022/11/08 09:46:08;;;;;;;15.88;12.63;;;;;;;16.76;94.91;100096.28;5046467;28;20049;-63
2022/11/08 09:48:39;;;;;;;19.40;17.77;;;;;;;16.81;94.57;100096.09;5036119;28;20107;-64
2022/11/08 09:51:11;;;;;;;19.02;13.70;;;;;;;16.74;94.30;100076.84;5041997;28;20076;-64
2022/11/08 09:53:52;;;;;;;18.88;13.73;;;;;;;16.72;94.20;100072.69;5039065;28;20053;-63
2022/11/08 09:56:37;;;;;;;16.10;13.88;;;;;;;16.72;94.46;100070.72;5038749;28;20041;-64
2022/11/08 09:59:32;;;;;;;16.33;13.65;;;;;;;16.77;94.40;100081.84;5050551;28;20059;-64
2022/11/08 10:01:59;;;;;;;17.92;13.80;;;;;;;16.90;95.00;100084.81;5049351;28;20056;-64
2022/11/08 10:04:32;;;;;;;14.38;12.88;;;;;;;16.89;94.68;100078.34;5038782;28;20056;-63
2022/11/08 10:07:37;;;;;;;21.25;13.38;;;;;;;16.78;93.96;100086.31;5035777;28;20050;-64
2022/11/08 10:10:26;;;;;;;19.75;13.02;;;;;;;16.73;93.96;100080.81;5037880;28;20053;-63
2022/11/08 10:13:37;;;;;;;19.20;12.80;;;;;;;16.65;94.19;100076.03;5036367;28;20127;-64
2022/11/08 10:16:38;;;;;;;19.42;13.65;;;;;;;16.68;94.36;100077.31;5041478;28;20060;-64
2022/11/08 10:19:15;;;;;;;17.60;15.50;;;;;;;16.59;94.41;100043.53;5035213;28;20049;-64
2022/11/08 10:22:04;;;;;;;15.55;13.70;;;;;;;16.70;94.45;100058.94;5040860;28;20060;-64
2022/11/08 10:24:35;;;;;;;16.10;12.75;;;;;;;16.78;94.07;100071.38;5040235;28;20048;-64
2022/11/08 10:27:13;;;;;;;12.93;11.82;;;;;;;16.71;94.13;100063.38;5044856;28;20051;-64
2022/11/08 10:29:43;;;;;;;14.23;12.80;;;;;;;16.69;93.84;100051.63;5040361;28;20059;-64
2022/11/08 10:32:21;;;;;;;;;;;;;;;16.40;94.75;100059.94;5039526;28;20041;-64
2022/11/08 10:34:57;;;;;;;16.00;14.18;;;;;;;16.55;94.21;100060.28;5041395;28;20394;-64
2022/11/08 10:37:26;;;;;;;17.15;13.88;;;;;;;16.53;93.87;100050.50;5041714;28;20491;-64
2022/11/08 10:39:58;;;;;;;28.20;14.32;;;;;;;16.52;93.66;100058.13;5045557;28;20048;-64
2022/11/08 10:42:43;;;;;;;17.73;13.57;;;;;;;16.47;93.23;100057.44;5047500;28;20052;-65
2022/11/08 10:45:10;;;;;;;17.52;12.98;;;;;;;16.45;93.45;100052.16;5050263;28;20045;-64
2022/11/08 10:47:38;;;;;;;15.27;13.82;;;;;;;16.48;93.65;100047.84;5035615;28;20053;-64
2022/11/08 10:50:16;;;;;;;15.93;14.02;;;;;;;16.50;93.70;100037.88;5046693;28;20125;-64
2022/11/08 10:52:50;;;;;;;19.13;14.35;;;;;;;16.59;93.97;100046.34;5041872;28;20186;-64
2022/11/08 10:55:37;;;;;;;19.42;14.85;;;;;;;16.64;94.03;100043.34;5031155;28;20049;-63
2022/11/08 10:58:28;;;;;;;21.83;18.08;;;;;;;16.55;93.36;100046.19;5041256;28;20053;-64
2022/11/08 11:01:00;;;;;;;16.33;14.43;;;;;;;16.55;93.27;100054.63;5040183;28;20053;-64
2022/11/08 11:03:30;;;;;;;18.77;16.95;;;;;;;16.49;93.43;100041.03;5041254;28;20490;-64
2022/11/08 11:06:02;;;;;;;19.55;14.98;;;;;;;16.42;93.24;100044.38;5039205;28;20845;-64
2022/11/08 11:08:30;;;;;;;23.10;13.73;;;;;;;16.44;93.45;100047.66;5037541;28;20052;-63
2022/11/08 11:11:22;;;;;;;22.05;14.35;;;;;;;16.37;93.17;100041.69;5042758;28;20049;-63
2022/11/08 11:14:20;;;;;;;20.45;16.15;;;;;;;16.42;93.61;100046.34;5035316;28;20156;-64
2022/11/08 11:17:06;;;;;;;13.50;12.35;;;;;;;16.43;93.40;100048.00;5036652;28;20041;-63
2022/11/08 11:19:33;;;;;;;22.20;14.05;;;;;;;16.48;93.20;100056.31;5036410;28;20048;-64
2022/11/08 11:22:08;;;;;;;16.58;14.60;;;;;;;16.42;93.23;100047.19;5041334;28;20048;-63
2022/11/08 11:24:45;;;;;;;21.58;19.30;;;;;;;16.44;93.58;100044.03;5033053;28;20060;-63
2022/11/08 11:27:22;;;;;;;14.98;13.57;;;;;;;16.45;93.50;100049.34;5031832;28;20404;-63
2022/11/08 11:30:20;;;;;;;22.67;17.77;;;;;;;16.40;93.49;100026.13;5034897;28;20048;-63
2022/11/08 11:33:23;;;;;;;17.63;14.68;;;;;;;16.34;93.30;100051.66;5034448;28;20385;-63
2022/11/08 11:35:56;;;;;;;28.25;14.13;;;;;;;16.33;93.02;100044.34;5033380;28;20047;-64
2022/11/08 11:38:35;;;;;;;17.05;15.35;;;;;;;16.34;93.24;100039.53;5033855;28;20048;-62
2022/11/08 11:41:36;;;;;;;21.67;14.25;;;;;;;16.13;92.96;100022.47;5045884;28;20041;-63
2022/11/08 11:44:20;;;;;;;16.58;14.55;;;;;;;16.13;93.65;100021.66;5043802;28;20404;-64
2022/11/08 11:46:57;;;;;;;15.43;14.10;;;;;;;16.18;93.66;100018.69;5042371;28;20055;-64
2022/11/08 11:49:27;;;;;;;22.08;17.27;;;;;;;16.20;93.78;100022.81;5041631;28;20052;-63
2022/11/08 11:51:55;;;;;;;15.57;14.05;;;;;;;16.18;94.03;100008.25;5046258;28;20422;-63
2022/11/08 11:54:28;;;;;;;17.80;15.45;;;;;;;16.14;93.49;100009.22;5042670;28;20052;-63